createdAt,value
2018-12-16T00:00:14.980Z,4.23
2018-12-16T00:03:04.496Z,4.63
2018-12-16T00:05:41.694Z,4.27
2018-12-16T00:08:32.564Z,4.13
2018-12-16T00:11:20.392Z,3.10
2018-12-16T00:13:55.914Z,5.77
2018-12-16T00:19:33.336Z,3.90
2018-12-16T00:22:08.141Z,4.93
2018-12-16T00:27:58.134Z,3.23
2018-12-16T00:30:44.900Z,2.90
2018-12-16T00:33:20.929Z,4.77
2018-12-16T00:35:58.758Z,3.73
2018-12-16T00:41:35.451Z,2.63
2018-12-16T00:44:13.079Z,4.13
2018-12-16T00:46:45.690Z,8.07
2018-12-16T00:49:23.923Z,3.47
2018-12-16T00:52:00.237Z,4.00
2018-12-16T00:54:36.055Z,2.70
2018-12-16T00:57:09.173Z,3.83
2018-12-16T00:59:45.431Z,3.07
2018-12-16T01:02:26.642Z,2.53
2018-12-16T01:05:02.234Z,4.37
2018-12-16T01:07:41.018Z,4.00
2018-12-16T01:10:19.217Z,2.47
2018-12-16T01:12:53.409Z,3.33
2018-12-16T01:15:32.465Z,4.40
2018-12-16T01:18:07.877Z,11.03
2018-12-16T01:20:43.553Z,4.97
2018-12-16T01:23:17.610Z,3.77
2018-12-16T01:25:58.370Z,4.70
2018-12-16T01:28:46.102Z,2.40
2018-12-16T01:31:36.572Z,3.40
2018-12-16T01:34:15.725Z,5.40
2018-12-16T01:36:52.538Z,4.30
2018-12-16T01:39:26.120Z,6.60
2018-12-16T01:42:03.998Z,4.20
2018-12-16T01:44:41.724Z,7.83
2018-12-16T01:47:23.321Z,2.33
2018-12-16T01:50:05.862Z,1.50
2018-12-16T01:52:41.178Z,7.40
2018-12-16T01:55:17.053Z,3.53
2018-12-16T01:58:05.383Z,4.37
2018-12-16T02:00:53.426Z,6.87
2018-12-16T02:03:35.506Z,4.17
2018-12-16T02:06:16.476Z,6.73
2018-12-16T02:08:59.322Z,2.90
2018-12-16T02:11:35.842Z,4.00
2018-12-16T02:14:23.192Z,5.77
2018-12-16T02:17:06.183Z,4.33
2018-12-16T02:19:42.580Z,5.10
2018-12-16T02:22:26.954Z,9.40
2018-12-16T02:25:04.770Z,2.30
2018-12-16T02:27:50.178Z,4.33
2018-12-16T02:30:30.744Z,3.47
2018-12-16T02:33:13.010Z,5.57
2018-12-16T02:35:47.849Z,3.90
2018-12-16T02:38:30.315Z,9.20
2018-12-16T02:41:13.050Z,2.60
2018-12-16T02:43:50.760Z,3.13
2018-12-16T02:46:23.928Z,3.03
2018-12-16T02:49:14.199Z,4.73
2018-12-16T02:51:49.152Z,3.20
2018-12-16T02:54:29.978Z,6.93
2018-12-16T02:57:11.384Z,4.40
2018-12-16T02:59:47.500Z,4.23
2018-12-16T03:02:32.799Z,4.10
2018-12-16T03:08:13.325Z,4.07
2018-12-16T03:10:45.868Z,7.10
2018-12-16T03:13:21.208Z,3.57
2018-12-16T03:16:10.557Z,10.03
2018-12-16T03:19:01.451Z,6.30
2018-12-16T03:21:49.527Z,2.53
2018-12-16T03:27:33.612Z,4.20
2018-12-16T03:30:12.489Z,3.33
2018-12-16T03:32:50.124Z,2.80
2018-12-16T03:35:27.340Z,2.70
2018-12-16T03:38:03.464Z,5.00
2018-12-16T03:40:45.022Z,3.67
2018-12-16T03:43:30.186Z,2.33
2018-12-16T03:46:05.195Z,9.53
2018-12-16T03:48:44.231Z,3.07
2018-12-16T03:51:33.024Z,5.80
2018-12-16T03:54:10.234Z,5.30
2018-12-16T03:56:46.105Z,5.87
2018-12-16T03:59:21.527Z,3.30
2018-12-16T04:01:59.113Z,4.10
2018-12-16T04:04:49.291Z,2.80
2018-12-16T04:07:25.391Z,15.03
2018-12-16T04:10:00.946Z,5.80
2018-12-16T04:12:49.024Z,3.50
2018-12-16T04:15:24.818Z,3.17
2018-12-16T04:18:02.950Z,4.17
2018-12-16T04:20:45.037Z,2.73
2018-12-16T04:23:17.111Z,2.20
2018-12-16T04:25:58.830Z,1.70
2018-12-16T04:28:46.698Z,2.87
2018-12-16T04:31:19.353Z,2.70
2018-12-16T04:33:54.810Z,5.27
2018-12-16T04:36:27.823Z,4.10
2018-12-16T04:39:07.537Z,3.57
2018-12-16T04:41:53.510Z,4.63
2018-12-16T04:44:29.900Z,4.03
2018-12-16T04:47:18.322Z,3.17
2018-12-16T04:49:51.625Z,5.03
2018-12-16T04:52:29.846Z,2.47
2018-12-16T04:55:03.831Z,9.17
2018-12-16T04:57:39.631Z,3.37
2018-12-16T05:00:22.139Z,6.53
2018-12-16T05:02:58.749Z,3.23
2018-12-16T05:08:43.592Z,3.97
2018-12-16T05:11:29.055Z,3.07
2018-12-16T05:14:09.934Z,3.47
2018-12-16T05:16:45.425Z,4.50
2018-12-16T05:19:17.863Z,5.03
2018-12-16T05:21:50.469Z,4.80
2018-12-16T05:24:27.802Z,3.87
2018-12-16T05:27:00.666Z,2.63
2018-12-16T05:29:32.893Z,6.03
2018-12-16T05:32:05.249Z,2.73
2018-12-16T05:34:37.590Z,2.53
2018-12-16T05:37:09.672Z,2.90
2018-12-16T05:39:42.131Z,4.60
2018-12-16T05:42:14.379Z,3.27
2018-12-16T05:44:46.654Z,11.37
2018-12-16T05:47:19.296Z,3.30
2018-12-16T05:49:52.081Z,5.37
2018-12-16T05:52:25.016Z,5.83
2018-12-16T05:54:57.481Z,2.50
2018-12-16T05:57:29.646Z,3.00
2018-12-16T06:00:02.235Z,2.63
2018-12-16T06:02:36.558Z,8.20
2018-12-16T06:05:10.736Z,6.63
2018-12-16T06:07:43.448Z,4.10
2018-12-16T06:10:13.845Z,3.93
2018-12-16T06:12:46.341Z,3.63
2018-12-16T06:15:19.780Z,5.97
2018-12-16T06:17:54.375Z,5.03
2018-12-16T06:20:26.981Z,7.33
2018-12-16T06:22:59.362Z,3.23
2018-12-16T06:25:31.203Z,9.43
2018-12-16T06:28:04.251Z,3.50
2018-12-16T06:30:38.171Z,4.77
2018-12-16T06:33:10.581Z,1.77
2018-12-16T06:35:42.777Z,3.10
2018-12-16T06:38:17.207Z,3.30
2018-12-16T06:40:49.997Z,2.77
2018-12-16T06:43:22.145Z,3.87
2018-12-16T06:45:54.250Z,2.17
2018-12-16T06:48:26.669Z,6.03
2018-12-16T06:51:00.940Z,2.57
2018-12-16T06:53:33.675Z,3.20
2018-12-16T06:56:06.769Z,2.80
2018-12-16T06:58:39.018Z,2.00
2018-12-16T07:01:11.287Z,4.93
2018-12-16T07:03:43.529Z,5.63
2018-12-16T07:06:15.993Z,3.83
2018-12-16T07:08:48.419Z,2.70
2018-12-16T07:11:18.378Z,3.60
2018-12-16T07:13:51.010Z,26.57
2018-12-16T07:16:23.247Z,7.37
2018-12-16T07:18:55.352Z,5.23
2018-12-16T07:21:27.851Z,6.70
2018-12-16T07:24:00.257Z,5.50
2018-12-16T07:26:32.541Z,4.10
2018-12-16T07:29:10.705Z,2.63
2018-12-16T07:31:55.714Z,2.63
2018-12-16T07:34:40.734Z,6.70
2018-12-16T07:37:22.560Z,9.83
2018-12-16T07:43:04.685Z,4.77
2018-12-16T07:45:39.038Z,7.37
2018-12-16T07:48:20.840Z,4.60
2018-12-16T07:50:56.712Z,3.70
2018-12-16T07:53:37.955Z,3.97
2018-12-16T07:56:12.674Z,6.27
2018-12-16T07:58:49.546Z,9.33
2018-12-16T08:01:26.950Z,4.43
2018-12-16T08:04:08.705Z,4.37
2018-12-16T08:06:45.246Z,3.43
2018-12-16T08:09:27.207Z,7.43
2018-12-16T08:12:12.071Z,5.50
2018-12-16T08:17:38.859Z,6.43
2018-12-16T08:20:12.634Z,4.10
2018-12-16T08:22:52.646Z,2.57
2018-12-16T08:25:28.034Z,4.80
2018-12-16T08:28:11.205Z,3.90
2018-12-16T08:30:48.530Z,6.07
2018-12-16T08:33:37.651Z,10.63
2018-12-16T08:36:10.324Z,3.33
2018-12-16T08:38:46.776Z,4.90
2018-12-16T08:41:29.182Z,3.30
2018-12-16T08:44:09.490Z,7.73
2018-12-16T08:46:45.836Z,7.50
2018-12-16T08:49:36.690Z,5.53
2018-12-16T08:52:28.041Z,2.70
2018-12-16T09:04:19.642Z,13.83
2018-12-16T09:09:53.588Z,5.90
2018-12-16T09:12:42.069Z,6.10
2018-12-16T09:21:17.376Z,14.37
2018-12-16T09:30:12.268Z,4.33
2018-12-16T09:32:47.971Z,7.47
2018-12-16T09:35:25.888Z,5.07
2018-12-16T09:38:06.973Z,11.30
2018-12-16T09:40:48.552Z,6.70
2018-12-16T09:43:22.712Z,7.47
2018-12-16T09:46:02.648Z,3.77
2018-12-16T09:48:38.376Z,4.03
2018-12-16T09:51:16.470Z,8.43
2018-12-16T09:53:54.149Z,7.03
2018-12-16T09:56:31.568Z,4.80
2018-12-16T09:59:05.707Z,4.60
2018-12-16T10:01:46.245Z,4.33
2018-12-16T10:04:29.246Z,16.43
2018-12-16T10:07:05.862Z,3.40
2018-12-16T10:09:42.511Z,5.77
2018-12-16T10:15:21.280Z,5.73
2018-12-16T10:18:19.257Z,2.13
2018-12-16T10:21:06.018Z,28.00
2018-12-16T10:23:56.423Z,5.03
2018-12-16T10:59:19.287Z,2.87
2018-12-16T11:26:24.238Z,4.80
2018-12-16T11:50:21.508Z,4.00
2018-12-16T11:52:58.976Z,4.47
2018-12-16T12:17:10.989Z,7.63
2018-12-16T12:46:34.454Z,9.20
2018-12-16T12:49:15.948Z,8.17
2018-12-16T12:54:47.357Z,6.07
2018-12-16T13:03:29.758Z,5.07
2018-12-16T13:06:10.129Z,7.53
2018-12-16T13:08:50.560Z,7.53
2018-12-16T13:17:32.830Z,7.03
2018-12-16T13:20:24.332Z,7.17
2018-12-16T13:25:59.256Z,4.90
2018-12-16T13:28:34.007Z,4.13
2018-12-16T13:31:18.678Z,14.40
2018-12-16T13:33:57.802Z,10.20
2018-12-16T13:36:42.407Z,8.93
2018-12-16T13:42:17.058Z,9.63
2018-12-16T13:45:05.489Z,7.47
2018-12-16T13:47:50.919Z,7.17
2018-12-16T13:50:33.032Z,5.30
2018-12-16T13:53:08.016Z,7.33
2018-12-16T13:55:52.308Z,9.27
2018-12-16T13:58:38.904Z,12.60
2018-12-16T14:04:14.036Z,5.63
2018-12-16T14:06:58.095Z,12.63
2018-12-16T14:09:47.127Z,6.37
2018-12-16T14:15:26.413Z,11.27
2018-12-16T14:30:11.486Z,5.53
2018-12-16T14:32:59.251Z,4.60
2018-12-16T14:53:00.511Z,4.10
2018-12-16T14:55:35.553Z,6.33
2018-12-16T15:01:23.617Z,7.67
2018-12-16T15:07:07.472Z,6.83
2018-12-16T15:09:42.465Z,6.73
2018-12-16T15:12:18.781Z,5.37
2018-12-16T15:17:52.965Z,4.90
2018-12-16T15:20:36.028Z,9.33
2018-12-16T15:23:19.418Z,11.77
2018-12-16T15:25:54.609Z,6.90
2018-12-16T15:28:32.184Z,6.90
2018-12-16T15:31:11.591Z,5.33
2018-12-16T15:33:49.377Z,7.73
2018-12-16T15:36:31.392Z,9.70
2018-12-16T15:39:07.037Z,4.33
2018-12-16T15:41:44.746Z,8.40
2018-12-16T15:44:32.180Z,10.77
2018-12-16T15:47:08.263Z,14.93
2018-12-16T15:49:54.837Z,9.30
2018-12-16T15:58:42.069Z,14.13
2018-12-16T16:01:17.570Z,20.47
2018-12-16T16:03:58.526Z,16.73
2018-12-16T16:06:38.839Z,10.53
2018-12-16T16:09:21.407Z,23.17
2018-12-16T16:11:57.947Z,9.63
2018-12-16T16:14:38.677Z,12.93
2018-12-16T16:20:28.401Z,11.43
2018-12-16T16:23:11.128Z,10.17
2018-12-16T16:25:49.933Z,12.13
2018-12-16T16:28:26.162Z,9.03
2018-12-16T16:31:02.414Z,6.97
2018-12-16T16:33:38.825Z,9.83
2018-12-16T16:36:19.593Z,13.53
2018-12-16T16:41:49.114Z,5.20
2018-12-16T16:44:26.042Z,9.10
2018-12-16T16:47:17.137Z,11.10
2018-12-16T16:50:03.908Z,5.10
2018-12-16T16:52:45.574Z,11.40
2018-12-16T16:55:21.468Z,4.13
2018-12-16T16:57:57.017Z,8.07
2018-12-16T17:00:39.745Z,7.17
2018-12-16T17:03:31.008Z,6.00
2018-12-16T17:09:12.056Z,9.33
2018-12-16T17:12:03.011Z,5.17
2018-12-16T17:14:44.494Z,3.73
2018-12-16T17:17:26.897Z,8.67
2018-12-16T17:20:06.142Z,10.93
2018-12-16T17:22:43.165Z,21.37
2018-12-16T17:25:24.529Z,9.30
2018-12-16T17:27:57.876Z,8.73
2018-12-16T17:33:26.943Z,9.30
2018-12-16T17:36:02.581Z,4.60
2018-12-16T17:38:44.577Z,8.80
2018-12-16T17:41:23.687Z,11.00
2018-12-16T17:44:09.409Z,8.83
2018-12-16T17:46:49.115Z,10.13
2018-12-16T18:01:51.673Z,9.03
2018-12-16T18:04:47.071Z,7.47
2018-12-16T18:13:37.099Z,7.43
2018-12-16T18:16:30.098Z,7.10
2018-12-16T18:31:23.997Z,8.07
2018-12-16T18:37:31.028Z,8.60
2018-12-16T18:43:23.289Z,6.13
2018-12-16T18:46:07.196Z,9.90
2018-12-16T18:48:44.004Z,6.30
2018-12-16T18:51:19.198Z,13.90
2018-12-16T18:53:55.783Z,10.23
2018-12-16T18:56:43.185Z,8.83
2018-12-16T18:59:28.155Z,7.77
2018-12-16T19:02:03.469Z,5.23
2018-12-16T19:04:42.736Z,3.37
2018-12-16T19:07:24.739Z,9.33
2018-12-16T19:10:03.743Z,10.67
2018-12-16T19:12:38.975Z,7.83
2018-12-16T19:15:14.469Z,14.37
2018-12-16T19:18:04.246Z,9.60
2018-12-16T19:20:38.941Z,15.70
2018-12-16T19:23:12.371Z,12.53
2018-12-16T19:25:53.719Z,18.50
2018-12-16T19:28:28.715Z,12.10
2018-12-16T19:33:47.336Z,17.30
2018-12-16T19:36:27.329Z,12.23
2018-12-16T19:39:03.030Z,14.53
2018-12-16T19:41:50.520Z,10.17
2018-12-16T19:44:33.319Z,10.30
2018-12-16T19:47:12.353Z,7.87
2018-12-16T19:49:50.967Z,8.10
2018-12-16T19:52:26.283Z,11.77
2018-12-16T19:54:59.513Z,8.83
2018-12-16T19:57:37.288Z,6.27
2018-12-16T20:00:21.784Z,5.67
2018-12-16T20:02:58.196Z,6.90
2018-12-16T20:05:35.031Z,12.13
2018-12-16T20:08:10.397Z,11.17
2018-12-16T20:10:51.063Z,6.17
2018-12-16T20:13:30.705Z,10.13
2018-12-16T20:16:03.992Z,5.03
2018-12-16T20:18:46.732Z,7.20
2018-12-16T20:21:25.879Z,11.10
2018-12-16T20:23:59.918Z,13.87
2018-12-16T20:26:32.915Z,6.67
2018-12-16T20:29:08.894Z,12.77
2018-12-16T20:31:44.871Z,10.87
2018-12-16T20:34:18.256Z,8.73
2018-12-16T20:36:52.444Z,6.57
2018-12-16T20:39:31.173Z,12.80
2018-12-16T20:42:11.572Z,11.50
2018-12-16T20:44:45.804Z,7.63
2018-12-16T20:47:20.596Z,7.07
2018-12-16T20:50:06.420Z,21.97
2018-12-16T20:52:40.323Z,53.03
2018-12-16T20:55:13.258Z,33.90
2018-12-16T20:57:48.596Z,17.23
2018-12-16T21:00:23.564Z,22.70
2018-12-16T21:02:58.631Z,16.13
2018-12-16T21:05:39.124Z,11.77
2018-12-16T21:08:20.158Z,13.57
2018-12-16T21:10:55.285Z,13.60
2018-12-16T21:13:33.120Z,6.83
2018-12-16T21:16:15.260Z,4.87
2018-12-16T21:18:47.840Z,11.17
2018-12-16T21:21:20.832Z,9.33
2018-12-16T21:23:55.951Z,15.57
2018-12-16T21:26:29.676Z,12.37
2018-12-16T21:29:10.158Z,6.10
2018-12-16T21:31:43.363Z,9.17
2018-12-16T21:34:16.496Z,8.67
2018-12-16T21:36:51.885Z,5.97
2018-12-16T21:39:26.459Z,9.00
2018-12-16T21:42:00.282Z,8.80
2018-12-16T21:44:38.897Z,7.80
2018-12-16T21:47:11.804Z,11.67
2018-12-16T21:49:46.957Z,3.77
2018-12-16T21:52:23.083Z,8.17
2018-12-16T21:54:55.939Z,6.77
2018-12-16T21:57:33.233Z,8.47
2018-12-16T22:00:07.701Z,9.33
2018-12-16T22:02:40.348Z,8.40
2018-12-16T22:05:17.367Z,6.93
2018-12-16T22:07:50.022Z,6.00
2018-12-16T22:10:22.917Z,10.40
2018-12-16T22:12:56.980Z,25.60
2018-12-16T22:15:29.021Z,7.33
2018-12-16T22:18:03.419Z,13.83
2018-12-16T22:20:38.647Z,15.40
2018-12-16T22:23:11.473Z,29.43
2018-12-16T22:25:43.495Z,69.50
2018-12-16T22:28:16.678Z,44.53
2018-12-16T22:30:51.580Z,39.40
2018-12-16T22:33:23.655Z,15.33
2018-12-16T22:35:59.643Z,9.23
2018-12-16T22:38:37.870Z,8.43
2018-12-16T22:41:12.067Z,5.63
2018-12-16T22:43:45.586Z,13.10
2018-12-16T22:46:17.839Z,10.60
2018-12-16T22:48:52.332Z,14.00
2018-12-16T22:51:25.267Z,7.77
2018-12-16T22:53:58.110Z,7.07
2018-12-16T22:56:33.959Z,8.63
2018-12-16T22:59:10.162Z,7.77
2018-12-16T23:01:43.107Z,10.03
2018-12-16T23:04:15.556Z,7.87
2018-12-16T23:06:49.204Z,4.97
2018-12-16T23:09:23.881Z,7.70
2018-12-16T23:11:56.358Z,11.43
2018-12-16T23:14:28.947Z,8.77
2018-12-16T23:17:01.118Z,10.00
2018-12-16T23:19:33.397Z,11.07
2018-12-16T23:22:05.437Z,12.70
2018-12-16T23:24:46.572Z,8.53
2018-12-16T23:27:21.485Z,7.97
2018-12-16T23:29:53.735Z,10.37
2018-12-16T23:32:26.661Z,15.57
2018-12-16T23:34:59.116Z,7.87
2018-12-16T23:37:38.061Z,10.70
2018-12-16T23:40:11.479Z,12.93
2018-12-16T23:42:46.509Z,11.90
2018-12-16T23:45:18.716Z,9.03
2018-12-16T23:47:50.938Z,12.53
2018-12-16T23:50:27.058Z,8.03
2018-12-16T23:53:00.446Z,11.23
2018-12-16T23:55:35.214Z,14.90
2018-12-16T23:58:08.735Z,7.67
